Time;durP1;ratioP1;P1;durP2;ratioP2;P2;SDS_P1;SDS_P2;PMS_P1;PMS_P2;Temp;Humidity;BMP_temperature;BMP_pressure;BME280_temperature;BME280_humidity;BME280_pressure;Samples;Min_cycle;Max_cycle;Signal;HPM_P1;HPM_P2
2023/02/16 00:01:30;;;;;;;;;;;;;;;-3.70;68.16;100652.06;5106011;28;19935;-76
2023/02/16 00:03:56;;;;;;;;;;;;;;;-3.72;68.44;100648.69;5107796;28;20155;-76
2023/02/16 00:06:22;;;;;;;;;;;;;;;-3.71;68.78;100639.69;5087093;28;19935;-75
2023/02/16 00:08:49;;;;;;;;;;;;;;;-3.73;68.78;100642.50;5101103;28;19928;-75
2023/02/16 00:14:07;;;;;;;;;;;;;;;-3.73;68.88;100645.19;5101186;28;19928;-75
2023/02/16 00:16:34;;;;;;;;;;;;;;;-3.75;68.87;100636.47;5087258;28;19934;-76
2023/02/16 00:18:59;;;;;;;;;;;;;;;-3.76;68.97;100637.47;5084515;28;19935;-76
2023/02/16 00:21:25;;;;;;;;;;;;;;;-3.78;69.15;100636.81;5108183;28;20348;-76
2023/02/16 00:23:51;;;;;;;;;;;;;;;-3.81;68.98;100638.97;5087150;28;19932;-75
2023/02/16 00:26:18;;;;;;;;;;;;;;;-3.86;68.77;100629.59;5088386;28;20318;-76
2023/02/16 00:28:47;;;;;;;;;;;;;;;-3.89;68.71;100631.72;5108166;28;19928;-75
2023/02/16 00:31:15;;;;;;;;;;;;;;;-3.94;68.80;100631.38;5112127;28;20390;-75
2023/02/16 00:33:41;;;;;;;;;;;;;;;-3.96;69.01;100626.19;5108577;28;20366;-75
2023/02/16 00:36:07;;;;;;;;;;;;;;;-3.95;68.88;100627.03;5089457;28;19973;-76
2023/02/16 00:38:34;;;;;;;;;;;;;;;-3.95;69.10;100627.84;5104129;28;19980;-76
2023/02/16 00:40:59;;;;;;;;;;;;;;;-3.94;68.89;100621.53;5104614;28;19927;-76
2023/02/16 00:43:27;;;;;;;;;;;;;;;-3.96;69.11;100623.50;5104112;28;20030;-75
2023/02/16 00:45:55;;;;;;;;;;;;;;;-3.94;68.84;100620.69;5087848;28;20014;-75
2023/02/16 00:48:21;;;;;;;;;;;;;;;-3.95;68.65;100624.38;5100190;28;19936;-75
2023/02/16 00:50:47;;;;;;;;;;;;;;;-3.95;68.40;100629.72;5099919;28;20417;-75
2023/02/16 00:53:16;;;;;;;;;;;;;;;-3.94;68.11;100623.38;5103744;28;20470;-76
2023/02/16 00:55:43;;;;;;;;;;;;;;;-3.96;68.25;100626.19;5073978;28;19927;-76
2023/02/16 00:58:12;;;;;;;;;;;;;;;-3.98;68.54;100617.50;5065320;28;20034;-75
2023/02/16 01:00:39;;;;;;;;;;;;;;;-4.01;68.93;100623.16;5074056;28;19928;-75
2023/02/16 01:03:10;;;;;;;;;;;;;;;-4.06;69.39;100612.09;5080389;28;20711;-75
2023/02/16 01:05:36;;;;;;;;;;;;;;;-4.08;69.57;100616.75;5085037;28;20744;-75
2023/02/16 01:13:37;;;;;;;;;;;;;;;-4.18;70.22;100620.41;5102481;28;19927;-75
2023/02/16 01:16:03;;;;;;;;;;;;;;;-4.21;70.23;100620.72;5103375;28;19950;-75
2023/02/16 01:18:32;;;;;;;;;;;;;;;-4.21;70.31;100617.19;5084398;28;19927;-74
2023/02/16 01:20:57;;;;;;;;;;;;;;;-4.22;70.42;100629.69;5085836;28;20865;-75
2023/02/16 01:23:23;;;;;;;;;;;;;;;-4.19;70.38;100629.41;5076055;28;19987;-75
2023/02/16 01:25:49;;;;;;;;;;;;;;;-4.16;70.18;100628.25;5057822;28;20032;-75
2023/02/16 01:28:18;;;;;;;;;;;;;;;-4.17;70.25;100634.59;5099445;28;19981;-75
2023/02/16 01:30:43;;;;;;;;;;;;;;;-4.17;70.31;100632.75;5087825;28;19967;-75
2023/02/16 01:33:10;;;;;;;;;;;;;;;-4.15;70.40;100625.41;5108003;28;19928;-75
2023/02/16 01:35:38;;;;;;;;;;;;;;;-4.13;70.19;100630.63;5104730;28;19928;-76
2023/02/16 01:38:03;;;;;;;;;;;;;;;-4.14;70.32;100637.78;5101629;28;19966;-76
2023/02/16 01:40:35;;;;;;;;;;;;;;;-4.14;70.12;100626.25;5093556;28;20417;-76
2023/02/16 01:43:07;;;;;;;;;;;;;;;-4.16;70.17;100628.25;5102617;28;20406;-75
2023/02/16 01:45:35;;;;;;;;;;;;;;;-4.17;70.16;100634.59;5101863;28;19961;-75
2023/02/16 01:48:02;;;;;;;;;;;;;;;-4.22;70.47;100636.91;5101400;28;19928;-75
2023/02/16 01:50:40;;;;;;;;;;;;;;;-4.22;70.42;100637.72;5100731;28;20381;-75
2023/02/16 01:53:13;;;;;;;;;;;;;;;-4.21;70.46;100650.09;5085911;28;19927;-75
2023/02/16 01:55:42;;;;;;;;;;;;;;;-4.20;70.34;100645.59;5105231;28;19939;-75
2023/02/16 01:58:14;;;;;;;;;;;;;;;-4.22;70.63;100643.06;5084652;28;19928;-75
2023/02/16 02:00:58;;;;;;;;;;;;;;;-4.23;70.91;100635.22;5081123;28;19928;-76
2023/02/16 02:06:10;;;;;;;;;;;;;;;-4.22;71.05;100648.41;5103280;28;19928;-76
2023/02/16 02:08:42;;;;;;;;;;;;;;;-4.19;71.00;100641.91;5084379;28;20017;-76
2023/02/16 02:11:11;;;;;;;;;;;;;;;-4.18;70.94;100647.13;5095889;28;19977;-76
2023/02/16 02:13:39;;;;;;;;;;;;;;;-4.17;70.67;100639.91;5094091;28;19936;-76
2023/02/16 02:16:27;;;;;;;;;;;;;;;-4.18;70.62;100639.09;5090016;28;19928;-76
2023/02/16 02:18:53;;;;;;;;;;;;;;;-4.13;70.77;100652.00;5098881;28;19927;-75
2023/02/16 02:24:53;;;;;;;;;;;;;;;-4.07;70.47;100639.81;5097329;28;19932;-76
2023/02/16 02:27:22;;;;;;;;;;;;;;;-4.09;71.07;100648.00;5027994;28;19927;-75
2023/02/16 02:30:12;;;;;;;;;;;;;;;-4.10;71.70;100648.16;5069546;28;19931;-76
2023/02/16 02:32:48;;;;;;;;;;;;;;;-4.18;72.34;100640.91;5067034;28;19927;-76
2023/02/16 02:35:23;;;;;;;;;;;;;;;-4.21;72.71;100646.59;5097876;28;19934;-76
2023/02/16 02:37:54;;;;;;;;;;;;;;;-4.26;72.80;100644.38;5103846;28;19935;-76
2023/02/16 02:40:29;;;;;;;;;;;;;;;-4.31;73.19;100633.34;5085794;28;20008;-75
2023/02/16 02:43:02;;;;;;;;;;;;;;;-4.37;73.39;100637.47;5094801;28;19932;-75
2023/02/16 02:45:30;;;;;;;;;;;;;;;-4.38;73.68;100634.94;5068058;28;19927;-75
2023/02/16 02:47:56;;;;;;;;;;;;;;;-4.41;74.05;100642.28;5095931;28;19954;-75
2023/02/16 02:53:32;;;;;;;;;;;;;;;-4.46;73.98;100635.72;5088598;28;19928;-75
2023/02/16 03:00:39;;;;;;;;;;;;;;;-4.50;74.22;100643.22;5102167;28;19995;-75
2023/02/16 03:01:35;;;;;;;;;;;;;;;-4.52;73.95;100642.53;5074236;28;19928;-75
2023/02/16 03:04:01;;;;;;;;;;;;;;;-4.48;73.94;100643.91;5085100;28;19969;-75
2023/02/16 03:06:30;;;;;;;;;;;;;;;-4.45;74.05;100646.25;5098639;28;19928;-75
2023/02/16 03:08:59;;;;;;;;;;;;;;;-4.44;73.98;100647.94;5104348;28;19935;-76
2023/02/16 03:14:13;;;;;;;;;;;;;;;-4.36;74.02;100644.47;5096634;28;19927;-75
2023/02/16 03:16:41;;;;;;;;;;;;;;;-4.37;73.79;100642.81;5100452;28;19927;-75
2023/02/16 03:30:13;;;;;;;;;;;;;;;-4.35;73.17;100638.13;5101282;28;20026;-75
2023/02/16 03:32:40;;;;;;;;;;;;;;;-4.35;72.80;100640.00;5100440;28;19927;-75
2023/02/16 03:35:07;;;;;;;;;;;;;;;-4.37;72.80;100642.81;5080157;28;19935;-75
2023/02/16 03:37:33;;;;;;;;;;;;;;;-4.38;72.78;100643.81;5098305;28;20031;-76
2023/02/16 03:42:47;;;;;;;;;;;;;;;-4.41;72.74;100642.28;5101547;28;19927;-75
2023/02/16 03:45:14;;;;;;;;;;;;;;;-4.42;72.87;100651.28;5075568;28;20052;-76
2023/02/16 03:47:40;;;;;;;;;;;;;;;-4.41;72.80;100641.44;5099421;28;19975;-75
2023/02/16 03:50:06;;;;;;;;;;;;;;;-4.39;72.66;100635.94;5089679;28;19970;-75
2023/02/16 03:52:32;;;;;;;;;;;;;;;-4.37;72.62;100633.94;5103014;28;19984;-75
2023/02/16 03:54:59;;;;;;;;;;;;;;;-4.39;72.59;100641.28;5104481;28;20184;-75
2023/02/16 03:57:25;;;;;;;;;;;;;;;-4.41;72.76;100639.59;5103330;28;19974;-75
2023/02/16 03:59:53;;;;;;;;;;;;;;;-4.36;72.63;100631.13;5104625;28;19999;-75
2023/02/16 04:02:20;;;;;;;;;;;;;;;-4.37;72.48;100632.13;5074222;28;19927;-76
2023/02/16 04:04:46;;;;;;;;;;;;;;;-4.37;72.34;100636.63;5106677;28;19928;-76
2023/02/16 04:07:12;;;;;;;;;;;;;;;-4.36;72.43;100627.63;5105377;28;19928;-75
2023/02/16 04:09:38;;;;;;;;;;;;;;;-4.36;72.39;100630.31;5104560;28;20341;-76
2023/02/16 04:14:49;;;;;;;;;;;;;;;-4.47;72.31;100610.88;5105854;28;19928;-75
2023/02/16 04:17:15;;;;;;;;;;;;;;;-4.46;72.49;100628.56;5081779;28;19950;-75
2023/02/16 04:19:42;;;;;;;;;;;;;;;-4.47;72.49;100623.34;5104975;28;20076;-75
2023/02/16 04:22:08;;;;;;;;;;;;;;;-4.47;72.48;100626.88;5107994;28;20305;-76
2023/02/16 04:24:34;;;;;;;;;;;;;;;-4.48;72.37;100627.88;5101564;28;19927;-76
2023/02/16 04:26:59;;;;;;;;;;;;;;;-4.46;72.70;100628.56;5106372;27;19928;-76
2023/02/16 04:29:25;;;;;;;;;;;;;;;-4.46;72.38;100633.03;5086913;28;20026;-76
2023/02/16 04:31:52;;;;;;;;;;;;;;;-4.44;72.25;100628.41;5100995;28;19977;-76
2023/02/16 04:34:17;;;;;;;;;;;;;;;-4.43;72.25;100630.91;5098050;28;19928;-75
2023/02/16 04:36:45;;;;;;;;;;;;;;;-4.40;72.06;100624.44;5087338;27;19935;-75
2023/02/16 04:39:11;;;;;;;;;;;;;;;-4.45;72.22;100614.22;5107477;27;19962;-75
2023/02/16 04:41:37;;;;;;;;;;;;;;;-4.45;72.36;100613.34;5102824;28;19982;-75
2023/02/16 04:44:03;;;;;;;;;;;;;;;-4.43;72.12;100622.06;5104497;28;19931;-75
2023/02/16 04:46:29;;;;;;;;;;;;;;;-4.41;72.18;100626.25;5078623;28;20382;-75
2023/02/16 04:48:56;;;;;;;;;;;;;;;-4.42;72.17;100623.75;5099759;28;19935;-75
2023/02/16 04:51:22;;;;;;;;;;;;;;;-4.39;72.37;100626.09;5106815;28;19927;-75
2023/02/16 04:53:49;;;;;;;;;;;;;;;-4.41;72.36;100623.56;5069884;28;19981;-75
2023/02/16 04:56:15;;;;;;;;;;;;;;;-4.44;72.31;100623.91;4745912;27;9999760;-75
2023/02/16 04:58:41;;;;;;;;;;;;;;;-4.42;72.38;100626.41;5096758;28;20362;-75
2023/02/16 05:01:07;;;;;;;;;;;;;;;-4.41;72.27;100626.25;5104265;28;19947;-75
2023/02/16 05:03:33;;;;;;;;;;;;;;;-4.41;72.47;100628.91;5098700;28;19934;-75
2023/02/16 05:05:59;;;;;;;;;;;;;;;-4.45;72.45;100627.56;5099291;28;19928;-76
2023/02/16 05:08:25;;;;;;;;;;;;;;;-4.54;72.74;100627.66;5103148;28;19963;-76
2023/02/16 05:16:23;;;;;;;;;;;;;;;-4.57;72.81;100628.81;5104611;28;20342;-75
2023/02/16 05:18:49;;;;;;;;;;;;;;;-4.57;72.92;100634.13;5086444;28;20039;-77
2023/02/16 05:21:30;;;;;;;;;;;;;;;-4.58;73.02;100629.78;5105922;28;20416;-76
2023/02/16 05:23:56;;;;;;;;;;;;;;;-4.53;72.76;100634.66;5102690;28;19931;-76
2023/02/16 05:26:24;;;;;;;;;;;;;;;-4.50;72.94;100637.88;5097342;28;19931;-76
2023/02/16 05:28:50;;;;;;;;;;;;;;;-4.48;72.81;100637.72;5089744;28;19935;-75
2023/02/16 05:31:16;;;;;;;;;;;;;;;-4.52;72.67;100631.00;5097688;28;19932;-76
2023/02/16 05:33:41;;;;;;;;;;;;;;;-4.45;72.76;100642.72;5098386;28;20337;-77
2023/02/16 05:36:08;;;;;;;;;;;;;;;-4.46;72.51;100636.56;5096576;28;20042;-77
2023/02/16 05:38:33;;;;;;;;;;;;;;;-4.50;72.60;100637.03;5078451;28;20302;-76
2023/02/16 05:40:59;;;;;;;;;;;;;;;-4.49;72.46;100633.38;5075417;28;19936;-77
2023/02/16 05:43:28;;;;;;;;;;;;;;;-4.48;72.32;100638.56;5099978;28;20310;-77
2023/02/16 05:45:54;;;;;;;;;;;;;;;-4.51;72.20;100640.69;5097387;28;19935;-76
2023/02/16 05:48:20;;;;;;;;;;;;;;;-4.49;72.35;100639.56;5088501;28;19928;-76
2023/02/16 05:50:46;;;;;;;;;;;;;;;-4.42;72.29;100637.09;5097243;28;19932;-76
2023/02/16 05:53:12;;;;;;;;;;;;;;;-4.41;72.20;100636.94;5079341;28;19928;-77
2023/02/16 05:55:38;;;;;;;;;;;;;;;-4.37;72.07;100637.47;5076846;28;20437;-77
2023/02/16 05:58:04;;;;;;;;;;;;;;;-4.37;72.00;100637.47;5094069;28;19960;-76
2023/02/16 06:00:32;;;;;;;;;;;;;;;-4.41;71.98;100641.44;5092762;28;19950;-76
2023/02/16 06:02:58;;;;;;;;;;;;;;;-4.47;72.06;100640.22;5059617;28;19927;-77
2023/02/16 06:05:24;;;;;;;;;;;;;;;-4.41;72.12;100644.94;5103852;28;19946;-77
2023/02/16 06:07:50;;;;;;;;;;;;;;;-4.35;72.24;100634.66;5068249;28;20386;-76
2023/02/16 06:10:16;;;;;;;;;;;;;;;-4.19;71.91;100629.41;5102318;28;19932;-76
2023/02/16 06:12:42;;;;;;;;;;;;;;;-4.14;71.92;100621.75;5106350;28;19932;-76
2023/02/16 06:15:08;;;;;;;;;;;;;;;-4.10;71.48;100624.09;5104913;28;20283;-76
2023/02/16 06:17:35;;;;;;;;;;;;;;;-4.13;71.42;100609.25;5104874;28;19939;-76
2023/02/16 06:20:02;;;;;;;;;;;;;;;-4.06;71.39;100617.44;5107091;28;19935;-76
2023/02/16 06:22:28;;;;;;;;;;;;;;;-4.05;71.52;100621.81;5102868;28;19927;-76
2023/02/16 06:24:58;;;;;;;;;;;;;;;-4.07;71.25;100632.66;5099473;28;20418;-76
2023/02/16 06:27:23;;;;;;;;;;;;;;;-4.09;71.22;100620.44;5103418;28;19971;-72
2023/02/16 06:29:49;;;;;;;;;;;;;;;-4.06;70.96;100623.63;5098906;28;20438;-72
2023/02/16 06:32:16;;;;;;;;;;;;;;;-4.03;70.91;100627.84;5093787;28;19935;-71
2023/02/16 06:34:44;;;;;;;;;;;;;;;-4.01;70.77;100623.97;5093443;28;19928;-76
2023/02/16 06:37:09;;;;;;;;;;;;;;;-3.91;70.57;100620.38;5099167;28;20458;-76
2023/02/16 06:39:35;;;;;;;;;;;;;;;-3.82;69.93;100623.91;5105560;28;20033;-76
2023/02/16 06:42:01;;;;;;;;;;;;;;;-3.81;69.66;100620.25;5095934;28;20386;-76
2023/02/16 06:44:27;;;;;;;;;;;;;;;-3.77;69.62;100621.59;5078719;28;19993;-76
2023/02/16 06:46:53;;;;;;;;;;;;;;;-3.71;69.60;100626.31;5099630;28;19963;-76
2023/02/16 06:49:19;;;;;;;;;;;;;;;-3.61;69.43;100626.19;5065547;28;20046;-76
2023/02/16 06:51:47;;;;;;;;;;;;;;;-3.56;68.94;100631.88;5095675;28;19931;-71
2023/02/16 06:54:13;;;;;;;;;;;;;;;-3.59;69.06;100630.38;5103598;28;19953;-72
2023/02/16 06:56:39;;;;;;;;;;;;;;;-3.60;69.07;100627.84;5104450;28;19927;-71
2023/02/16 06:59:05;;;;;;;;;;;;;;;-3.53;68.68;100618.19;5106383;28;19928;-76
2023/02/16 07:01:31;;;;;;;;;;;;;;;-3.42;68.83;100617.06;5102598;28;19928;-77
2023/02/16 07:03:57;;;;;;;;;;;;;;;-3.40;68.11;100620.41;5104267;28;19973;-73
2023/02/16 07:06:24;;;;;;;;;;;;;;;-3.34;68.13;100613.56;5061878;28;19928;-74
2023/02/16 07:08:52;;;;;;;;;;;;;;;-3.34;67.78;100613.56;5085479;28;19931;-73
2023/02/16 07:11:18;;;;;;;;;;;;;;;-3.16;67.44;100616.94;5099077;28;19927;-67
2023/02/16 07:13:44;;;;;;;;;;;;;;;-3.11;66.96;100616.47;5101500;28;20086;-67
2023/02/16 07:16:10;;;;;;;;;;;;;;;-3.15;66.75;100615.09;5102125;28;20712;-67
2023/02/16 07:18:36;;;;;;;;;;;;;;;-3.10;67.03;100615.47;5102703;28;19928;-69
2023/02/16 07:21:01;;;;;;;;;;;;;;;-3.02;66.92;100615.47;5102179;28;19963;-69
2023/02/16 07:23:27;;;;;;;;;;;;;;;-2.92;66.28;100611.78;5102626;28;20425;-69
2023/02/16 07:25:54;;;;;;;;;;;;;;;-2.91;65.89;100614.28;5103726;28;20467;-69
2023/02/16 07:28:20;;;;;;;;;;;;;;;-2.90;65.84;100613.28;5092568;28;20387;-69
2023/02/16 07:30:46;;;;;;;;;;;;;;;-2.93;65.53;100610.13;5100685;28;20031;-69
2023/02/16 07:33:13;;;;;;;;;;;;;;;-2.96;65.69;100607.78;5098256;28;19927;-69
2023/02/16 07:35:39;;;;;;;;;;;;;;;-2.92;65.50;100617.16;5105703;28;19927;-69
2023/02/16 07:38:05;;;;;;;;;;;;;;;-2.88;65.40;100608.63;5096731;28;22226;-69
2023/02/16 07:40:31;;;;;;;;;;;;;;;-2.86;64.98;100613.78;5104740;27;20042;-69
2023/02/16 07:43:00;;;;;;;;;;;;;;;-2.92;65.27;100617.16;5105884;28;19978;-69
2023/02/16 07:45:26;;;;;;;;;;;;;;;-2.90;65.09;100620.50;5100075;28;19927;-70
2023/02/16 07:47:52;;;;;;;;;;;;;;;-2.85;64.75;100620.81;5103256;28;19939;-69
2023/02/16 07:50:18;;;;;;;;;;;;;;;-2.80;64.75;100613.16;5108172;28;19966;-69
2023/02/16 07:52:43;;;;;;;;;;;;;;;-2.82;64.57;100617.00;5065962;28;19981;-69
2023/02/16 07:55:10;;;;;;;;;;;;;;;-2.93;64.56;100599.41;5108294;28;19928;-69
2023/02/16 07:57:36;;;;;;;;;;;;;;;-2.80;64.30;100612.31;5106741;28;19932;-69
2023/02/16 08:00:06;;;;;;;;;;;;;;;-2.72;63.95;100615.00;5106657;28;19927;-69
2023/02/16 08:02:37;;;;;;;;;;;;;;;-2.65;63.75;100607.94;5104471;28;19927;-67
2023/02/16 08:05:03;;;;;;;;;;;;;;;-2.59;63.36;100607.25;5106674;28;19935;-68
2023/02/16 08:07:29;;;;;;;;;;;;;;;-2.45;63.29;100611.13;5106745;28;19927;-67
2023/02/16 08:09:55;;;;;;;;;;;;;;;-2.28;62.75;100608.41;5102080;28;20420;-67
2023/02/16 08:12:21;;;;;;;;;;;;;;;-2.22;62.38;100605.03;5106887;28;19927;-68
2023/02/16 08:14:46;;;;;;;;;;;;;;;-2.16;62.33;100607.06;5106174;28;20079;-67
2023/02/16 08:28:27;;;;;;;0.10;0.10;;;;;;;-1.60;61.79;100608.84;5123292;27;20418;-68
2023/02/16 08:30:53;;;;;;;0.10;0.10;;;;;;;-1.67;61.41;100617.78;5125194;28;20126;-69
2023/02/16 08:33:19;;;;;;;0.10;0.10;;;;;;;-1.71;60.92;100611.94;5090868;28;20138;-68
2023/02/16 08:35:45;;;;;;;0.10;0.10;;;;;;;-1.82;60.81;100609.63;5104424;28;20406;-68
2023/02/16 08:38:11;;;;;;;0.10;0.10;;;;;;;-1.92;60.90;100607.97;5103439;28;20056;-68
2023/02/16 08:40:37;;;;;;;0.10;0.10;;;;;;;-2.00;60.91;100613.38;5111541;28;20101;-69
2023/02/16 08:43:03;;;;;;;0.10;0.10;;;;;;;-2.07;60.91;100609.69;5097388;28;20158;-68
2023/02/16 08:45:31;;;;;;;0.10;0.10;;;;;;;-2.16;61.40;100607.06;5092929;28;20145;-71
2023/02/16 08:48:00;;;;;;;;;;;;;;;-2.08;61.25;100602.66;5090637;28;20048;-71
2023/02/16 08:50:32;;;;;;;0.15;0.10;;;;;;;-1.88;60.99;100603.13;5089946;28;19969;-71
2023/02/16 08:52:58;;;;;;;0.10;0.10;;;;;;;-1.65;60.36;100594.28;5105138;28;20054;-68
2023/02/16 08:55:24;;;;;;;0.15;0.15;;;;;;;-1.42;59.73;100597.03;5102080;28;20058;-69
2023/02/16 08:57:50;;;;;;;0.10;0.10;;;;;;;-1.26;59.37;100590.75;5104778;28;20051;-69
2023/02/16 09:00:36;;;;;;;0.10;0.10;;;;;;;-1.10;58.60;100600.53;5071108;28;20633;-69
2023/02/16 09:03:05;;;;;;;0.10;0.10;;;;;;;-1.10;58.18;100591.66;5103820;28;20528;-71
2023/02/16 09:05:32;;;;;;;0.20;0.20;;;;;;;-1.08;58.25;100598.53;5088976;28;20058;-71
2023/02/16 09:07:59;;;;;;;0.20;0.20;;;;;;;-1.10;58.32;100602.41;5103193;28;20545;-71
2023/02/16 09:10:25;;;;;;;0.52;0.20;;;;;;;-1.11;58.54;100601.53;5069387;28;20448;-71
2023/02/16 09:12:51;;;;;;;0.10;0.10;;;;;;;-0.95;58.25;100600.59;5085575;28;20050;-71
2023/02/16 09:15:17;;;;;;;0.20;0.20;;;;;;;-0.78;57.60;100590.59;5101168;28;20043;-71
2023/02/16 09:17:43;;;;;;;0.10;0.10;;;;;;;-0.57;56.91;100595.25;5099132;28;20070;-71
2023/02/16 09:20:11;;;;;;;0.10;0.10;;;;;;;-0.54;56.48;100593.25;5100476;28;20425;-71
2023/02/16 09:22:38;;;;;;;0.20;0.20;;;;;;;-0.65;56.54;100595.34;5100683;28;20038;-71
2023/02/16 09:25:06;;;;;;;0.10;0.10;;;;;;;-0.90;56.26;100592.84;5102506;28;20680;-71
2023/02/16 09:27:33;;;;;;;0.10;0.10;;;;;;;-1.18;56.80;100592.53;5084448;28;20071;-71
2023/02/16 09:30:01;;;;;;;0.10;0.10;;;;;;;-1.43;57.08;100588.16;5060204;28;20048;-69
2023/02/16 09:32:29;;;;;;;0.17;0.17;;;;;;;-1.72;57.44;100589.66;5050382;28;20048;-68
2023/02/16 09:34:55;;;;;;;0.10;0.10;;;;;;;-1.74;57.67;100583.63;5082164;28;20060;-70
2023/02/16 09:37:23;;;;;;;0.20;0.20;;;;;;;-1.72;57.44;100584.28;5071644;28;20098;-71
2023/02/16 09:39:49;;;;;;;0.10;0.10;;;;;;;-1.71;57.87;100582.44;5062859;28;20511;-71
2023/02/16 09:42:29;;;;;;;0.10;0.10;;;;;;;-1.84;58.04;100582.97;5065950;28;20131;-71
2023/02/16 09:45:06;;;;;;;0.10;0.10;;;;;;;-1.97;58.38;100583.53;5066106;28;20094;-71
2023/02/16 09:47:36;;;;;;;0.10;0.10;;;;;;;-2.01;58.36;100582.22;5067442;28;20147;-71
2023/02/16 09:50:12;;;;;;;0.10;0.10;;;;;;;-2.01;58.28;100576.88;5066447;28;20048;-71
2023/02/16 09:52:43;;;;;;;0.15;0.15;;;;;;;-2.07;58.19;100575.72;5065636;28;20044;-71
2023/02/16 09:55:13;;;;;;;0.10;0.10;;;;;;;-2.23;58.36;100578.44;5053622;28;20039;-71
2023/02/16 09:57:54;;;;;;;0.10;0.10;;;;;;;-2.35;58.58;100583.28;5071008;28;20071;-71
2023/02/16 10:00:27;;;;;;;0.20;0.20;;;;;;;-2.31;58.79;100584.66;5070563;28;20040;-71
2023/02/16 10:02:59;;;;;;;0.10;0.10;;;;;;;-2.30;57.99;100575.59;5063601;28;20507;-71
2023/02/16 10:05:29;;;;;;;0.10;0.10;;;;;;;-2.28;57.94;100585.13;5065925;28;20087;-71
2023/02/16 10:08:06;;;;;;;0.10;0.10;;;;;;;-2.23;57.86;100575.75;5067451;28;20049;-71
2023/02/16 10:10:41;;;;;;;0.10;0.10;;;;;;;-2.24;57.99;100577.59;5071849;28;20511;-71
2023/02/16 10:13:17;;;;;;;0.15;0.15;;;;;;;-2.24;58.14;100585.63;5076015;28;20040;-71
2023/02/16 10:15:44;;;;;;;0.10;0.10;;;;;;;-2.21;58.28;100574.56;5067947;28;20040;-71
2023/02/16 10:18:20;;;;;;;0.10;0.10;;;;;;;-2.12;58.11;100567.31;5085785;28;20052;-71
2023/02/16 10:20:52;;;;;;;0.10;0.10;;;;;;;-2.18;57.82;100570.72;5071635;28;20049;-71
2023/02/16 10:23:32;;;;;;;0.10;0.10;;;;;;;-2.22;58.09;100566.72;5068093;28;20048;-71
2023/02/16 10:26:09;;;;;;;0.30;0.15;;;;;;;-2.30;57.66;100570.25;5075678;28;20044;-71
2023/02/16 10:28:41;;;;;;;0.10;0.10;;;;;;;-2.31;57.97;100560.53;5092943;28;20556;-71
2023/02/16 10:31:15;;;;;;;0.10;0.10;;;;;;;-2.18;57.77;100565.34;5092784;28;20405;-71
2023/02/16 10:33:42;;;;;;;0.15;0.15;;;;;;;-2.13;57.39;100562.97;5090449;28;20142;-71
2023/02/16 10:36:21;;;;;;;0.10;0.10;;;;;;;-2.09;57.46;100577.72;5090788;28;20105;-71
2023/02/16 10:38:56;;;;;;;0.10;0.10;;;;;;;-2.06;57.71;100566.66;5085726;28;20514;-71
2023/02/16 10:41:31;;;;;;;0.10;0.10;;;;;;;-1.98;57.30;100570.31;5088885;28;20063;-71
2023/02/16 10:44:03;;;;;;;0.10;0.10;;;;;;;-1.90;57.07;100563.06;5075413;28;20174;-71
2023/02/16 10:46:34;;;;;;;0.20;0.20;;;;;;;-1.76;56.96;100558.84;5092386;28;20052;-71
2023/02/16 10:49:03;;;;;;;0.10;0.10;;;;;;;-1.58;56.23;100555.88;5082915;28;20052;-71
2023/02/16 10:51:32;;;;;;;0.20;0.20;;;;;;;-1.43;55.78;100558.66;5100075;28;20094;-71
2023/02/16 10:54:03;;;;;;;0.20;0.20;;;;;;;-1.31;55.00;100552.88;5072802;28;20052;-71
2023/02/16 10:56:42;;;;;;;0.20;0.20;;;;;;;-1.26;54.73;100547.81;5097796;28;20568;-71
2023/02/16 10:59:15;;;;;;;0.17;0.17;;;;;;;-1.04;54.31;100556.03;5104064;28;20090;-71
2023/02/16 11:01:44;;;;;;;0.20;0.20;;;;;;;-0.94;53.97;100558.47;5103970;28;20039;-71
2023/02/16 11:04:31;;;;;;;0.10;0.10;;;;;;;-0.87;53.73;100559.44;5085984;28;20052;-71
2023/02/16 11:07:04;;;;;;;0.10;0.10;;;;;;;-1.17;53.47;100552.13;5087126;28;20134;-71
2023/02/16 11:09:31;;;;;;;0.20;0.20;;;;;;;-1.41;53.91;100554.94;5056196;28;20329;-71
2023/02/16 11:11:58;;;;;;;0.10;0.10;;;;;;;-1.50;54.59;100551.50;5092889;28;20554;-71
2023/02/16 11:14:30;;;;;;;0.10;0.10;;;;;;;-1.55;54.72;100554.69;5090251;28;20058;-71
2023/02/16 11:17:06;;;;;;;0.20;0.20;;;;;;;-1.71;54.59;100556.44;5088279;28;20051;-71
2023/02/16 11:19:34;;;;;;;0.20;0.20;;;;;;;-1.78;54.55;100552.81;5086221;28;20048;-71
2023/02/16 11:22:01;;;;;;;0.13;0.13;;;;;;;-1.86;54.77;100556.38;5069938;28;20514;-71
2023/02/16 11:24:29;;;;;;;0.10;0.10;;;;;;;-1.89;54.88;100548.66;5053002;28;20071;-71
2023/02/16 11:27:03;;;;;;;;;;;;;;;-1.95;55.12;100545.81;5085376;28;20392;-71
2023/02/16 11:29:30;;;;;;;0.10;0.10;;;;;;;-2.05;55.49;100548.72;5081982;28;19924;-72
2023/02/16 11:31:57;;;;;;;0.10;0.10;;;;;;;-2.17;55.01;100535.72;5088761;28;20028;-70
2023/02/16 11:34:30;;;;;;;0.10;0.10;;;;;;;-2.17;55.43;100549.13;5085453;28;20054;-71
2023/02/16 11:37:03;;;;;;;0.15;0.15;;;;;;;-2.16;55.28;100548.09;5094363;28;20048;-71
2023/02/16 11:39:35;;;;;;;0.10;0.10;;;;;;;-2.18;55.16;100552.81;5088689;28;20230;-71
2023/02/16 11:42:06;;;;;;;0.20;0.20;;;;;;;-2.14;54.84;100550.59;5086808;28;20040;-71
2023/02/16 11:44:37;;;;;;;0.10;0.10;;;;;;;-2.13;54.41;100552.25;5088412;28;20243;-71
2023/02/16 11:47:06;;;;;;;0.10;0.10;;;;;;;-2.22;54.30;100546.09;5086039;28;20040;-71
2023/02/16 11:49:35;;;;;;;0.10;0.10;;;;;;;-2.15;54.16;100547.09;5091778;28;20169;-71
2023/02/16 11:52:17;;;;;;;0.13;0.13;;;;;;;-2.14;53.71;100540.72;5085661;28;20048;-71
2023/02/16 11:54:48;;;;;;;0.10;0.10;;;;;;;-2.22;53.91;100534.56;5085579;28;20047;-71
2023/02/16 11:57:24;;;;;;;0.10;0.10;;;;;;;-2.15;53.38;100544.41;5086669;28;20066;-71
2023/02/16 11:59:50;;;;;;;0.10;0.10;;;;;;;-2.23;53.29;100535.56;5086270;28;20126;-68
2023/02/16 12:02:49;;;;;;;0.90;0.10;;;;;;;-2.30;53.30;100538.09;5054589;28;20050;-68
2023/02/16 12:05:24;;;;;;;0.10;0.10;;;;;;;-2.38;53.24;100540.78;5076744;28;20512;-68
2023/02/16 12:08:19;;;;;;;0.10;0.10;;;;;;;-2.47;53.17;100539.97;5073541;28;20052;-69
2023/02/16 12:11:04;;;;;;;0.10;0.10;;;;;;;-2.64;53.69;100544.53;5085349;28;20115;-71
2023/02/16 12:13:42;;;;;;;0.10;0.10;;;;;;;-2.65;53.81;100542.88;5093573;28;20047;-71
2023/02/16 12:16:22;;;;;;;0.10;0.10;;;;;;;-2.54;53.61;100542.50;5071627;28;20070;-71
2023/02/16 12:19:01;;;;;;;0.20;0.20;;;;;;;-2.46;53.46;100538.97;5068742;28;20062;-71
2023/02/16 12:21:35;;;;;;;0.10;0.10;;;;;;;-2.45;52.99;100540.63;5052556;28;20044;-71
2023/02/16 12:24:16;;;;;;;0.10;0.10;;;;;;;-2.45;53.06;100538.81;5085780;28;20067;-71
2023/02/16 12:26:50;;;;;;;0.10;0.10;;;;;;;-2.42;53.09;100542.97;5086387;28;20098;-69
2023/02/16 12:29:31;;;;;;;0.20;0.20;;;;;;;-2.45;52.98;100535.28;5067419;28;20051;-71
2023/02/16 12:32:07;;;;;;;0.10;0.10;;;;;;;-2.47;53.05;100545.31;5087952;28;20046;-71
2023/02/16 12:34:46;;;;;;;0.17;0.17;;;;;;;-2.43;53.14;100544.81;5070277;28;20051;-71
2023/02/16 12:37:21;;;;;;;0.20;0.20;;;;;;;-2.33;52.83;100549.16;5069899;28;20059;-71
2023/02/16 12:39:57;;;;;;;0.20;0.20;;;;;;;-2.32;52.77;100548.97;5082334;28;20093;-71
2023/02/16 12:42:43;;;;;;;0.10;0.10;;;;;;;-2.22;53.10;100548.78;5085251;28;20048;-71
2023/02/16 12:45:15;;;;;;;0.10;0.10;;;;;;;-2.09;53.01;100539.34;5084809;28;20051;-71
2023/02/16 12:47:48;;;;;;;0.10;0.10;;;;;;;-2.17;52.68;100542.91;5094547;28;20047;-71
2023/02/16 12:50:20;;;;;;;0.10;0.10;;;;;;;-2.36;52.92;100547.66;5085591;28;20100;-71
2023/02/16 12:52:51;;;;;;;0.20;0.20;;;;;;;-2.38;53.21;100543.47;5077005;28;20093;-71
2023/02/16 12:55:20;;;;;;;0.20;0.15;;;;;;;-2.40;53.45;100551.69;5066276;28;20583;-71
2023/02/16 12:57:54;;;;;;;0.10;0.10;;;;;;;-2.46;53.61;100547.84;5069716;28;20417;-71
2023/02/16 13:00:37;;;;;;;0.10;0.10;;;;;;;-2.61;53.45;100549.53;5074917;28;20093;-71
2023/02/16 13:03:19;;;;;;;0.10;0.10;;;;;;;-2.65;53.50;100546.38;5080682;28;20059;-68
2023/02/16 13:05:50;;;;;;;0.20;0.20;;;;;;;-2.65;53.25;100545.53;5109677;28;20225;-70
2023/02/16 13:08:25;;;;;;;0.20;0.20;;;;;;;-2.64;53.50;100549.88;5109017;28;20047;-71
2023/02/16 13:10:59;;;;;;;0.17;0.17;;;;;;;-2.52;53.21;100547.69;5101459;28;20050;-71
2023/02/16 13:13:28;;;;;;;0.20;0.20;;;;;;;-2.37;53.13;100547.81;5045689;28;20074;-70
2023/02/16 13:16:04;;;;;;;0.20;0.20;;;;;;;-2.34;53.25;100547.47;5088261;28;20585;-69